createdAt,value
2022-10-20T00:00:18.541Z,1022.00
2022-10-20T00:01:19.442Z,1022.00
2022-10-20T00:02:20.395Z,1022.01
2022-10-20T00:03:21.288Z,1022.02
2022-10-20T00:04:22.170Z,1022.03
2022-10-20T00:05:23.051Z,1022.01
2022-10-20T00:06:23.959Z,1022.00
2022-10-20T00:07:24.876Z,1021.94
2022-10-20T00:08:25.838Z,1021.96
2022-10-20T00:09:26.676Z,1021.96
2022-10-20T00:10:27.564Z,1021.96
2022-10-20T00:11:28.439Z,1022.02
2022-10-20T00:12:29.346Z,1022.00
2022-10-20T00:13:30.243Z,1021.95
2022-10-20T00:14:31.138Z,1021.94
2022-10-20T00:15:32.038Z,1021.98
2022-10-20T00:16:32.941Z,1021.94
2022-10-20T00:17:33.826Z,1021.94
2022-10-20T00:18:34.747Z,1021.94
2022-10-20T00:19:35.646Z,1021.92
2022-10-20T00:20:36.505Z,1021.88
2022-10-20T00:21:37.380Z,1021.90
2022-10-20T00:22:38.533Z,1021.91
2022-10-20T00:23:39.075Z,1021.92
2022-10-20T00:24:39.967Z,1021.89
2022-10-20T00:25:40.841Z,1021.95
2022-10-20T00:26:41.725Z,1021.94
2022-10-20T00:27:42.598Z,1021.97
2022-10-20T00:28:43.319Z,1021.94
2022-10-20T00:29:44.199Z,1021.90
2022-10-20T00:30:45.088Z,1021.88
2022-10-20T00:31:45.963Z,1021.91
2022-10-20T00:32:46.846Z,1021.91
2022-10-20T00:33:47.744Z,1021.91
2022-10-20T00:34:48.624Z,1021.90
2022-10-20T00:35:49.500Z,1021.89
2022-10-20T00:36:51.416Z,1021.88
2022-10-20T00:37:50.968Z,1021.86
2022-10-20T00:38:51.839Z,1021.81
2022-10-20T00:39:52.723Z,1021.80
2022-10-20T00:40:53.604Z,1021.88
2022-10-20T00:41:54.487Z,1021.81
2022-10-20T00:42:55.377Z,1021.81
2022-10-20T00:43:56.264Z,1021.83
2022-10-20T00:44:57.148Z,1021.86
2022-10-20T00:45:58.030Z,1021.83
2022-10-20T00:46:58.916Z,1021.77
2022-10-20T00:47:59.795Z,1021.75
2022-10-20T00:49:00.691Z,1021.76
2022-10-20T00:50:01.565Z,1021.77
2022-10-20T00:51:02.438Z,1021.77
2022-10-20T00:52:03.319Z,1021.76
2022-10-20T00:53:04.223Z,1021.74
2022-10-20T00:54:05.094Z,1021.72
2022-10-20T00:55:05.983Z,1021.72
2022-10-20T00:56:06.851Z,1021.72
2022-10-20T00:57:07.740Z,1021.71
2022-10-20T00:58:08.627Z,1021.69
2022-10-20T00:59:09.513Z,1021.70
2022-10-20T01:00:10.396Z,1021.74
2022-10-20T01:01:11.364Z,1021.78
2022-10-20T01:02:12.268Z,1021.76
2022-10-20T01:03:13.147Z,1021.81
2022-10-20T01:04:14.035Z,1021.76
2022-10-20T01:05:14.907Z,1021.86
2022-10-20T01:07:16.676Z,1021.89
2022-10-20T01:08:17.547Z,1021.86
2022-10-20T01:09:18.422Z,1021.84
2022-10-20T01:10:19.305Z,1021.83
2022-10-20T01:11:20.188Z,1021.84
2022-10-20T01:12:21.072Z,1021.79
2022-10-20T01:13:21.953Z,1021.78
2022-10-20T01:14:22.837Z,1021.79
2022-10-20T01:16:24.504Z,1021.73
2022-10-20T01:17:25.392Z,1021.72
2022-10-20T01:18:26.271Z,1021.71
2022-10-20T01:19:27.180Z,1021.67
2022-10-20T01:20:28.048Z,1021.67
2022-10-20T01:21:28.931Z,1021.62
2022-10-20T01:22:29.814Z,1021.62
2022-10-20T01:23:30.958Z,1021.60
2022-10-20T01:24:31.289Z,1021.56
2022-10-20T01:25:32.160Z,1021.58
2022-10-20T01:26:33.036Z,1021.57
2022-10-20T01:27:34.285Z,1021.60
2022-10-20T01:28:34.764Z,1021.55
2022-10-20T01:29:35.647Z,1021.59
2022-10-20T01:30:36.541Z,1021.60
2022-10-20T01:31:37.427Z,1021.58
2022-10-20T01:32:38.303Z,1021.61
2022-10-20T01:33:39.186Z,1021.59
2022-10-20T01:34:40.078Z,1021.57
2022-10-20T01:35:40.958Z,1021.52
2022-10-20T01:36:41.836Z,1021.51
2022-10-20T01:37:49.888Z,1021.50
2022-10-20T01:38:44.505Z,1021.48
2022-10-20T01:39:44.378Z,1021.49
2022-10-20T01:40:45.263Z,1021.44
2022-10-20T01:41:46.134Z,1021.38
2022-10-20T01:42:47.017Z,1021.48
2022-10-20T01:43:47.900Z,1021.43
2022-10-20T01:44:48.781Z,1021.47
2022-10-20T01:45:49.656Z,1021.46
2022-10-20T01:46:50.539Z,1021.44
2022-10-20T01:47:51.423Z,1021.42
2022-10-20T01:48:52.311Z,1021.40
2022-10-20T01:49:53.205Z,1021.44
2022-10-20T01:50:54.082Z,1021.38
2022-10-20T01:51:54.985Z,1021.40
2022-10-20T01:52:55.870Z,1021.43
2022-10-20T01:53:56.786Z,1021.39
2022-10-20T01:54:57.658Z,1021.39
2022-10-20T01:55:58.596Z,1021.36
2022-10-20T01:56:59.468Z,1021.39
2022-10-20T01:58:00.350Z,1021.42
2022-10-20T01:59:01.239Z,1021.41
2022-10-20T02:00:02.123Z,1021.41
2022-10-20T02:01:03.000Z,1021.40
2022-10-20T02:02:04.238Z,1021.40
2022-10-20T02:03:04.626Z,1021.41
2022-10-20T02:04:05.510Z,1021.38
2022-10-20T02:05:06.408Z,1021.40
2022-10-20T02:06:07.289Z,1021.29
2022-10-20T02:07:08.185Z,1021.31
2022-10-20T02:08:09.048Z,1021.31
2022-10-20T02:09:09.947Z,1021.29
2022-10-20T02:10:10.823Z,1021.29
2022-10-20T02:11:11.704Z,1021.24
2022-10-20T02:12:12.578Z,1021.21
2022-10-20T02:13:13.460Z,1021.16
2022-10-20T02:14:14.356Z,1021.11
2022-10-20T02:15:15.236Z,1021.09
2022-10-20T02:16:16.111Z,1021.10
2022-10-20T02:17:16.992Z,1021.05
2022-10-20T02:18:17.868Z,1021.06
2022-10-20T02:19:18.753Z,1021.12
2022-10-20T02:20:19.647Z,1021.08
2022-10-20T02:21:20.521Z,1021.09
2022-10-20T02:22:21.406Z,1021.08
2022-10-20T02:23:22.301Z,1021.03
2022-10-20T02:24:23.196Z,1021.07
2022-10-20T02:25:24.078Z,1021.05
2022-10-20T02:26:24.984Z,1020.98
2022-10-20T02:27:25.877Z,1020.97
2022-10-20T02:28:26.787Z,1021.05
2022-10-20T02:29:27.681Z,1021.02
2022-10-20T02:30:28.591Z,1020.99
2022-10-20T02:31:29.499Z,1021.00
2022-10-20T02:32:30.376Z,1021.02
2022-10-20T02:33:31.260Z,1020.99
2022-10-20T02:34:32.172Z,1020.97
2022-10-20T02:35:33.064Z,1020.98
2022-10-20T02:36:33.951Z,1020.98
2022-10-20T02:37:35.149Z,1020.93
2022-10-20T02:38:35.809Z,1020.89
2022-10-20T02:39:36.702Z,1020.91
2022-10-20T02:40:37.577Z,1020.91
2022-10-20T02:41:38.469Z,1020.87
2022-10-20T02:42:39.373Z,1020.81
2022-10-20T02:43:40.266Z,1020.85
2022-10-20T02:44:41.161Z,1020.88
2022-10-20T02:45:42.046Z,1020.86
2022-10-20T02:46:42.918Z,1020.93
2022-10-20T02:47:43.801Z,1020.94
2022-10-20T02:48:44.675Z,1020.94
2022-10-20T02:49:45.557Z,1020.93
2022-10-20T02:50:46.454Z,1020.87
2022-10-20T02:51:47.327Z,1020.88
2022-10-20T02:52:48.208Z,1020.89
2022-10-20T02:53:49.093Z,1020.84
2022-10-20T02:54:49.995Z,1020.85
2022-10-20T02:55:50.867Z,1020.87
2022-10-20T02:56:51.748Z,1020.86
2022-10-20T02:57:52.624Z,1020.90
2022-10-20T02:58:53.510Z,1020.95
2022-10-20T02:59:54.391Z,1020.98
2022-10-20T03:00:55.278Z,1020.94
2022-10-20T03:01:56.180Z,1020.92
2022-10-20T03:02:57.040Z,1020.93
2022-10-20T03:03:57.923Z,1020.97
2022-10-20T03:04:58.815Z,1021.04
2022-10-20T03:05:59.696Z,1021.01
2022-10-20T03:07:00.573Z,1021.00
2022-10-20T03:08:01.453Z,1020.99
2022-10-20T03:09:02.383Z,1020.95
2022-10-20T03:10:03.237Z,1021.02
2022-10-20T03:11:04.101Z,1020.98
2022-10-20T03:12:04.985Z,1020.96
2022-10-20T03:13:05.872Z,1021.04
2022-10-20T03:14:06.751Z,1021.07
2022-10-20T03:15:07.663Z,1021.05
2022-10-20T03:16:08.534Z,1021.03
2022-10-20T03:17:09.411Z,1021.05
2022-10-20T03:18:10.338Z,1021.05
2022-10-20T03:19:11.989Z,1021.04
2022-10-20T03:20:11.922Z,1021.04
2022-10-20T03:21:12.820Z,1021.04
2022-10-20T03:22:13.692Z,1021.01
2022-10-20T03:23:17.683Z,1021.08
2022-10-20T03:24:16.344Z,1021.04
2022-10-20T03:25:16.238Z,1021.04
2022-10-20T03:26:17.099Z,1021.08
2022-10-20T03:27:17.984Z,1021.07
2022-10-20T03:28:18.857Z,1021.04
2022-10-20T03:29:19.740Z,1021.04
2022-10-20T03:30:20.621Z,1021.08
2022-10-20T03:31:21.496Z,1021.02
2022-10-20T03:32:22.378Z,1021.00
2022-10-20T03:33:23.268Z,1021.02
2022-10-20T03:34:24.153Z,1021.03
2022-10-20T03:35:25.036Z,1021.04
2022-10-20T03:36:25.922Z,1021.01
2022-10-20T03:37:26.811Z,1021.06
2022-10-20T03:38:27.690Z,1021.05
2022-10-20T03:39:28.607Z,1021.05
2022-10-20T03:40:29.516Z,1021.00
2022-10-20T03:41:30.371Z,1021.05
2022-10-20T03:42:31.267Z,1021.01
2022-10-20T03:43:32.171Z,1021.03
2022-10-20T03:44:33.066Z,1021.04
2022-10-20T03:45:33.973Z,1021.06
2022-10-20T03:46:34.835Z,1021.04
2022-10-20T03:47:35.728Z,1021.03
2022-10-20T03:48:36.614Z,1021.02
2022-10-20T03:49:37.506Z,1021.00
2022-10-20T03:50:38.388Z,1021.05
2022-10-20T03:51:39.282Z,1021.05
2022-10-20T03:52:40.156Z,1021.04
2022-10-20T03:53:41.032Z,1021.08
2022-10-20T03:54:41.920Z,1021.07
2022-10-20T03:55:42.825Z,1021.09
2022-10-20T03:56:43.688Z,1021.07
2022-10-20T03:57:44.566Z,1021.08
2022-10-20T03:58:45.458Z,1021.05
2022-10-20T03:59:46.339Z,1021.02
2022-10-20T04:00:47.221Z,1021.00
2022-10-20T04:01:48.140Z,1021.00
2022-10-20T04:02:48.979Z,1020.98
2022-10-20T04:03:49.862Z,1020.96
2022-10-20T04:04:50.755Z,1020.92
2022-10-20T04:05:51.639Z,1020.97
2022-10-20T04:06:52.560Z,1020.97
2022-10-20T04:07:53.407Z,1020.96
2022-10-20T04:08:54.411Z,1020.94
2022-10-20T04:09:55.337Z,1020.92
2022-10-20T04:10:56.190Z,1020.96
2022-10-20T04:11:57.070Z,1020.94
2022-10-20T04:12:57.941Z,1020.92
2022-10-20T04:13:58.816Z,1020.92
2022-10-20T04:14:59.722Z,1020.90
2022-10-20T04:16:00.596Z,1020.91
2022-10-20T04:17:01.479Z,1020.93
2022-10-20T04:18:02.374Z,1020.96
2022-10-20T04:19:03.519Z,1020.93
2022-10-20T04:20:04.011Z,1020.95
2022-10-20T04:21:04.893Z,1020.94
2022-10-20T04:22:05.812Z,1020.93
2022-10-20T04:23:06.682Z,1020.88
2022-10-20T04:24:07.577Z,1020.89
2022-10-20T04:25:08.488Z,1020.87
2022-10-20T04:26:09.401Z,1020.89
2022-10-20T04:27:10.283Z,1020.91
2022-10-20T04:28:11.174Z,1020.88
2022-10-20T04:29:12.081Z,1020.88
2022-10-20T04:30:12.961Z,1020.87
2022-10-20T04:31:13.848Z,1020.86
2022-10-20T04:32:14.731Z,1020.86
2022-10-20T04:33:15.615Z,1020.87
2022-10-20T04:34:16.487Z,1020.85
2022-10-20T04:35:17.381Z,1020.82
2022-10-20T04:36:18.267Z,1020.79
2022-10-20T04:37:19.160Z,1020.79
2022-10-20T04:38:20.030Z,1020.78
2022-10-20T04:39:20.913Z,1020.78
2022-10-20T04:40:21.829Z,1020.80
2022-10-20T04:41:22.731Z,1020.79
2022-10-20T04:42:23.613Z,1020.79
2022-10-20T04:43:24.521Z,1020.81
2022-10-20T04:44:25.429Z,1020.79
2022-10-20T04:45:26.303Z,1020.76
2022-10-20T04:46:27.176Z,1020.75
2022-10-20T04:47:28.087Z,1020.75
2022-10-20T04:48:28.963Z,1020.77
2022-10-20T04:49:29.846Z,1020.77
2022-10-20T04:50:30.754Z,1020.77
2022-10-20T04:51:31.625Z,1020.78
2022-10-20T04:52:32.498Z,1020.77
2022-10-20T04:53:33.381Z,1020.76
2022-10-20T04:54:34.265Z,1020.75
2022-10-20T04:55:35.163Z,1020.70
2022-10-20T04:56:36.064Z,1020.70
2022-10-20T04:57:37.145Z,1020.72
2022-10-20T04:58:37.652Z,1020.70
2022-10-20T04:59:38.532Z,1020.76
2022-10-20T05:00:39.431Z,1020.73
2022-10-20T05:01:40.389Z,1020.74
2022-10-20T05:02:41.254Z,1020.75
2022-10-20T05:03:42.136Z,1020.76
2022-10-20T05:04:43.012Z,1020.77
2022-10-20T05:05:43.894Z,1020.73
2022-10-20T05:06:44.787Z,1020.73
2022-10-20T05:07:45.680Z,1020.72
2022-10-20T05:08:46.692Z,1020.69
2022-10-20T05:09:47.136Z,1020.66
2022-10-20T05:10:48.030Z,1020.65
2022-10-20T05:11:48.927Z,1020.66
2022-10-20T05:12:49.788Z,1020.65
2022-10-20T05:13:50.664Z,1020.68
2022-10-20T05:14:51.491Z,1020.73
2022-10-20T05:15:52.383Z,1020.75
2022-10-20T05:16:53.283Z,1020.73
2022-10-20T05:17:54.152Z,1020.72
2022-10-20T05:18:54.992Z,1020.73
2022-10-20T05:19:55.864Z,1020.75
2022-10-20T05:21:08.403Z,1020.69
2022-10-20T05:21:58.532Z,1020.73
2022-10-20T05:22:58.391Z,1020.72
2022-10-20T05:23:59.267Z,1020.75
2022-10-20T05:25:12.862Z,1020.75
2022-10-20T05:26:01.848Z,1020.75
2022-10-20T05:27:01.694Z,1020.72
2022-10-20T05:28:02.495Z,1020.76
2022-10-20T05:29:03.323Z,1020.74
2022-10-20T05:30:04.152Z,1020.73
2022-10-20T05:31:05.020Z,1020.69
2022-10-20T05:32:05.825Z,1020.65
2022-10-20T05:33:06.655Z,1020.65
2022-10-20T05:34:07.488Z,1020.68
2022-10-20T05:35:08.304Z,1020.64
2022-10-20T05:36:09.144Z,1020.66
2022-10-20T05:37:09.970Z,1020.68
2022-10-20T05:38:10.796Z,1020.72
2022-10-20T05:39:11.620Z,1020.71
2022-10-20T05:40:12.466Z,1020.74
2022-10-20T05:41:13.298Z,1020.76
2022-10-20T05:42:14.153Z,1020.73
2022-10-20T05:43:17.194Z,1020.74
2022-10-20T05:44:15.734Z,1020.70
2022-10-20T05:45:16.561Z,1020.69
2022-10-20T05:46:17.550Z,1020.78
2022-10-20T05:47:17.883Z,1020.78
2022-10-20T05:48:18.721Z,1020.78
2022-10-20T05:49:19.532Z,1020.76
2022-10-20T05:50:20.363Z,1020.74
2022-10-20T05:51:21.221Z,1020.74
2022-10-20T05:52:22.032Z,1020.71
2022-10-20T05:53:22.859Z,1020.70
2022-10-20T05:54:23.691Z,1020.71
2022-10-20T05:55:24.609Z,1020.70
2022-10-20T05:56:25.447Z,1020.66
2022-10-20T05:57:26.303Z,1020.70
2022-10-20T05:58:27.127Z,1020.69
2022-10-20T05:59:27.938Z,1020.68
2022-10-20T06:00:28.788Z,1020.69
2022-10-20T06:01:29.739Z,1020.67
2022-10-20T06:02:30.563Z,1020.71
2022-10-20T06:03:31.396Z,1020.68
2022-10-20T06:04:32.223Z,1020.69
2022-10-20T06:05:33.049Z,1020.70
2022-10-20T06:06:33.894Z,1020.65
2022-10-20T06:07:34.723Z,1020.72
2022-10-20T06:08:35.606Z,1020.72
2022-10-20T06:09:36.433Z,1020.73
2022-10-20T06:10:37.255Z,1020.67
2022-10-20T06:11:39.435Z,1020.67
2022-10-20T06:12:39.257Z,1020.68
2022-10-20T06:13:39.582Z,1020.63
2022-10-20T06:14:40.423Z,1020.62
2022-10-20T06:15:41.244Z,1020.64
2022-10-20T06:16:42.072Z,1020.68
2022-10-20T06:17:42.903Z,1020.68
2022-10-20T06:18:43.554Z,1020.68
2022-10-20T06:19:44.360Z,1020.71
2022-10-20T06:20:45.187Z,1020.69
2022-10-20T06:21:46.055Z,1020.77
2022-10-20T06:22:46.859Z,1020.79
2022-10-20T06:23:47.687Z,1020.79
2022-10-20T06:24:48.522Z,1020.76
2022-10-20T06:25:49.346Z,1020.78
2022-10-20T06:26:50.177Z,1020.75
2022-10-20T06:27:51.029Z,1020.78
2022-10-20T06:28:51.837Z,1020.81
2022-10-20T06:29:52.676Z,1020.81
2022-10-20T06:30:53.525Z,1020.86
2022-10-20T06:31:54.338Z,1020.83
2022-10-20T06:32:55.184Z,1020.83
2022-10-20T06:33:55.987Z,1020.82
2022-10-20T06:34:56.807Z,1020.86
2022-10-20T06:35:57.645Z,1020.83
2022-10-20T06:36:58.476Z,1020.88
2022-10-20T06:37:59.305Z,1020.88
2022-10-20T06:39:00.125Z,1020.85
2022-10-20T06:40:00.955Z,1020.83
2022-10-20T06:41:01.786Z,1020.85
2022-10-20T06:42:02.627Z,1020.78
2022-10-20T06:43:03.487Z,1020.82
2022-10-20T06:44:05.082Z,1020.84
2022-10-20T06:45:04.914Z,1020.85
2022-10-20T06:46:05.747Z,1020.89
2022-10-20T06:47:06.573Z,1020.84
2022-10-20T06:48:07.402Z,1020.80
2022-10-20T06:49:08.245Z,1020.79
2022-10-20T06:50:09.052Z,1020.79
2022-10-20T06:51:09.898Z,1020.79
2022-10-20T06:53:11.480Z,1020.77
2022-10-20T06:54:12.309Z,1020.74
2022-10-20T06:55:13.136Z,1020.75
2022-10-20T06:56:13.964Z,1020.72
2022-10-20T06:57:14.912Z,1020.74
2022-10-20T06:58:15.694Z,1020.76
2022-10-20T06:59:16.498Z,1020.69
2022-10-20T07:00:17.419Z,1020.67
2022-10-20T07:01:18.370Z,1020.61
2022-10-20T07:02:19.184Z,1020.64
2022-10-20T07:03:20.005Z,1020.61
2022-10-20T07:04:20.848Z,1020.62
2022-10-20T07:05:21.663Z,1020.55
2022-10-20T07:06:22.503Z,1020.62
2022-10-20T07:07:23.421Z,1020.62
2022-10-20T07:08:24.185Z,1020.64
2022-10-20T07:09:25.005Z,1020.68
2022-10-20T07:10:25.882Z,1020.67
2022-10-20T07:11:26.687Z,1020.65
2022-10-20T07:12:27.670Z,1020.65
2022-10-20T07:13:28.489Z,1020.65
2022-10-20T07:14:32.345Z,1020.65
2022-10-20T07:15:29.840Z,1020.68
2022-10-20T07:16:30.775Z,1020.68
2022-10-20T07:17:31.555Z,1020.67
2022-10-20T07:18:32.498Z,1020.70
2022-10-20T07:19:33.280Z,1020.66
2022-10-20T07:20:34.128Z,1020.63
2022-10-20T07:21:36.609Z,1020.64
2022-10-20T07:22:35.938Z,1020.62
2022-10-20T07:23:36.353Z,1020.57
2022-10-20T07:24:37.200Z,1020.61
2022-10-20T07:25:38.012Z,1020.63
2022-10-20T07:26:38.855Z,1020.65
2022-10-20T07:27:39.669Z,1020.64
2022-10-20T07:28:40.517Z,1020.62
2022-10-20T07:29:41.321Z,1020.64
2022-10-20T07:30:42.171Z,1020.62
2022-10-20T07:31:42.997Z,1020.62
2022-10-20T07:32:43.821Z,1020.65
2022-10-20T07:33:45.929Z,1020.59
2022-10-20T07:34:46.363Z,1020.59
2022-10-20T07:35:46.194Z,1020.54
2022-10-20T07:36:47.041Z,1020.51
2022-10-20T07:37:47.865Z,1020.51
2022-10-20T07:38:48.695Z,1020.48
2022-10-20T07:39:49.518Z,1020.50
2022-10-20T07:40:50.356Z,1020.52
2022-10-20T07:41:51.186Z,1020.50
2022-10-20T07:42:52.015Z,1020.48
2022-10-20T07:43:52.869Z,1020.51
2022-10-20T07:44:53.674Z,1020.53
2022-10-20T07:45:54.506Z,1020.50
2022-10-20T07:46:55.337Z,1020.41
2022-10-20T07:47:56.155Z,1020.46
2022-10-20T07:49:02.718Z,1020.46
2022-10-20T07:49:58.718Z,1020.47
2022-10-20T07:50:58.546Z,1020.40
2022-10-20T07:51:59.374Z,1020.37
2022-10-20T07:53:00.220Z,1020.27
2022-10-20T07:54:01.038Z,1020.29
2022-10-20T07:55:17.407Z,1020.34
2022-10-20T07:56:03.599Z,1020.30
2022-10-20T07:57:03.426Z,1020.31
2022-10-20T07:58:04.252Z,1020.28
2022-10-20T07:59:05.101Z,1020.24
2022-10-20T08:00:05.903Z,1020.23
2022-10-20T08:01:06.749Z,1020.22
2022-10-20T08:02:07.623Z,1020.27
2022-10-20T08:03:08.402Z,1020.30
2022-10-20T08:04:09.239Z,1020.26
2022-10-20T08:05:10.060Z,1020.23
2022-10-20T08:06:10.883Z,1020.23
2022-10-20T08:07:11.731Z,1020.29
2022-10-20T08:08:12.552Z,1020.20
2022-10-20T08:09:13.383Z,1020.22
2022-10-20T08:10:14.202Z,1020.14
2022-10-20T08:11:15.031Z,1020.13
2022-10-20T08:12:15.865Z,1020.10
2022-10-20T08:13:16.705Z,1020.11
2022-10-20T08:14:17.542Z,1020.10
2022-10-20T08:15:18.351Z,1020.09
2022-10-20T08:16:21.084Z,1020.04
2022-10-20T08:17:19.902Z,1020.05
2022-10-20T08:18:21.584Z,1020.06
2022-10-20T08:19:24.084Z,1020.01
2022-10-20T08:20:25.007Z,1020.00
2022-10-20T08:21:23.606Z,1020.02
2022-10-20T08:22:23.449Z,1020.02
2022-10-20T08:23:24.257Z,1019.97
2022-10-20T08:24:25.077Z,1019.95
2022-10-20T08:25:25.906Z,1019.98
2022-10-20T08:26:26.746Z,1019.92
2022-10-20T08:27:27.574Z,1019.91
2022-10-20T08:28:28.397Z,1019.88
2022-10-20T08:29:29.304Z,1019.88
2022-10-20T08:30:30.055Z,1019.86
2022-10-20T08:31:30.901Z,1019.87
2022-10-20T08:32:31.729Z,1019.86
2022-10-20T08:33:32.557Z,1019.91
2022-10-20T08:34:33.387Z,1019.88
2022-10-20T08:35:34.215Z,1019.85
2022-10-20T08:36:35.052Z,1019.91
2022-10-20T08:37:36.120Z,1019.90
2022-10-20T08:38:36.575Z,1019.87
2022-10-20T08:39:37.411Z,1019.88
2022-10-20T08:40:38.234Z,1019.83
2022-10-20T08:42:02.656Z,1019.84
2022-10-20T08:42:40.796Z,1019.80
2022-10-20T08:43:40.636Z,1019.83
2022-10-20T08:44:41.479Z,1019.83
2022-10-20T08:45:42.283Z,1019.83
2022-10-20T08:46:43.121Z,1019.85
2022-10-20T08:47:43.942Z,1019.83
2022-10-20T08:48:44.761Z,1019.84
2022-10-20T08:49:45.595Z,1019.86
2022-10-20T08:50:46.416Z,1019.85
2022-10-20T08:51:47.259Z,1019.84
2022-10-20T08:52:48.081Z,1019.82
2022-10-20T08:53:48.910Z,1019.82
2022-10-20T08:54:49.729Z,1019.83
2022-10-20T08:55:50.558Z,1019.81
2022-10-20T08:56:51.400Z,1019.80
2022-10-20T08:57:52.222Z,1019.76
2022-10-20T08:58:53.052Z,1019.77
2022-10-20T08:59:53.905Z,1019.77
2022-10-20T09:00:54.703Z,1019.75
2022-10-20T09:01:55.639Z,1019.74
2022-10-20T09:02:56.485Z,1019.71
2022-10-20T09:03:57.303Z,1019.69
2022-10-20T09:04:58.134Z,1019.67
2022-10-20T09:05:58.964Z,1019.70
2022-10-20T09:06:59.803Z,1019.65
2022-10-20T09:08:00.644Z,1019.65
2022-10-20T09:09:01.536Z,1019.63
2022-10-20T09:10:02.317Z,1019.64
2022-10-20T09:11:03.155Z,1019.64
2022-10-20T09:12:03.985Z,1019.64
2022-10-20T09:13:04.802Z,1019.64
2022-10-20T09:14:05.640Z,1019.62
2022-10-20T09:15:06.522Z,1019.61
2022-10-20T09:16:07.289Z,1019.62
2022-10-20T09:17:11.412Z,1019.61
2022-10-20T09:18:08.853Z,1019.62
2022-10-20T09:19:09.681Z,1019.60
2022-10-20T09:20:10.524Z,1019.63
2022-10-20T09:21:11.339Z,1019.60
2022-10-20T09:22:12.170Z,1019.60
2022-10-20T09:23:35.395Z,1019.57
2022-10-20T09:24:14.717Z,1019.57
2022-10-20T09:25:14.553Z,1019.56
2022-10-20T09:26:25.033Z,1019.59
2022-10-20T09:27:17.096Z,1019.57
2022-10-20T09:28:16.929Z,1019.53
2022-10-20T09:29:17.757Z,1019.49
2022-10-20T09:30:18.759Z,1019.49
2022-10-20T09:31:19.563Z,1019.49
2022-10-20T09:33:22.101Z,1019.45
2022-10-20T09:34:21.946Z,1019.47
2022-10-20T09:35:22.761Z,1019.45
2022-10-20T09:36:23.603Z,1019.43
2022-10-20T09:37:24.428Z,1019.44
2022-10-20T09:38:25.253Z,1019.45
2022-10-20T09:39:26.075Z,1019.43
2022-10-20T09:40:26.897Z,1019.41
2022-10-20T09:41:27.733Z,1019.43
2022-10-20T09:42:28.572Z,1019.42
2022-10-20T09:43:29.386Z,1019.45
2022-10-20T09:44:30.208Z,1019.45
2022-10-20T09:45:31.065Z,1019.42
2022-10-20T09:46:31.873Z,1019.45
2022-10-20T09:47:32.703Z,1019.40
2022-10-20T09:48:33.533Z,1019.39
2022-10-20T09:49:34.364Z,1019.39
2022-10-20T09:50:35.198Z,1019.40
2022-10-20T09:51:36.053Z,1019.43
2022-10-20T09:52:37.162Z,1019.41
2022-10-20T09:53:37.582Z,1019.41
2022-10-20T09:54:38.412Z,1019.40
2022-10-20T09:55:39.240Z,1019.39
2022-10-20T09:56:40.082Z,1019.37
2022-10-20T09:57:40.900Z,1019.34
2022-10-20T09:58:41.723Z,1019.35
2022-10-20T09:59:42.550Z,1019.35
2022-10-20T10:00:43.426Z,1019.37
2022-10-20T10:01:44.235Z,1019.37
2022-10-20T10:02:45.068Z,1019.37
2022-10-20T10:03:45.891Z,1019.36
2022-10-20T10:04:46.711Z,1019.35
2022-10-20T10:05:47.535Z,1019.34
2022-10-20T10:06:48.363Z,1019.32
2022-10-20T10:07:49.193Z,1019.31
2022-10-20T10:08:50.083Z,1019.29
2022-10-20T10:09:50.855Z,1019.27
2022-10-20T10:10:51.685Z,1019.29
2022-10-20T10:11:52.522Z,1019.30
2022-10-20T10:12:53.397Z,1019.28
2022-10-20T10:13:54.192Z,1019.25
2022-10-20T10:14:55.035Z,1019.23
2022-10-20T10:15:55.881Z,1019.24
2022-10-20T10:16:56.682Z,1019.25
2022-10-20T10:17:57.510Z,1019.26
2022-10-20T10:18:58.329Z,1019.27
2022-10-20T10:19:59.158Z,1019.27
2022-10-20T10:21:00.005Z,1019.26
2022-10-20T10:22:00.853Z,1019.26
2022-10-20T10:23:01.671Z,1019.30
2022-10-20T10:24:02.501Z,1019.31
2022-10-20T10:25:03.322Z,1019.30
2022-10-20T10:26:04.150Z,1019.27
2022-10-20T10:27:04.993Z,1019.28
2022-10-20T10:28:05.810Z,1019.31
2022-10-20T10:29:06.633Z,1019.28
2022-10-20T10:30:07.458Z,1019.27
2022-10-20T10:31:08.297Z,1019.25
2022-10-20T10:32:09.116Z,1019.27
2022-10-20T10:33:09.945Z,1019.29
2022-10-20T10:34:10.766Z,1019.25
2022-10-20T10:35:11.586Z,1019.26
2022-10-20T10:36:12.414Z,1019.25
2022-10-20T10:37:13.317Z,1019.31
2022-10-20T10:38:14.133Z,1019.28
2022-10-20T10:39:14.961Z,1019.31
2022-10-20T10:40:15.783Z,1019.31
2022-10-20T10:41:16.614Z,1019.27
2022-10-20T10:42:17.442Z,1019.27
2022-10-20T10:43:18.272Z,1019.28
2022-10-20T10:44:19.103Z,1019.26
2022-10-20T10:45:19.934Z,1019.23
2022-10-20T10:46:20.790Z,1019.24
2022-10-20T10:47:21.592Z,1019.19
2022-10-20T10:48:22.421Z,1019.19
2022-10-20T10:49:23.241Z,1019.20
2022-10-20T10:50:24.070Z,1019.16
2022-10-20T10:51:24.915Z,1019.08
2022-10-20T10:52:25.731Z,1019.04
2022-10-20T10:53:26.564Z,1019.05
2022-10-20T10:54:27.389Z,1019.01
2022-10-20T10:55:47.802Z,1019.02
2022-10-20T10:56:29.943Z,1019.01
2022-10-20T10:57:29.775Z,1018.97
2022-10-20T10:58:30.596Z,1018.98
2022-10-20T10:59:31.425Z,1018.92
2022-10-20T11:00:32.283Z,1018.93
2022-10-20T11:01:33.136Z,1018.93
2022-10-20T11:02:34.216Z,1018.93
2022-10-20T11:03:37.652Z,1018.90
2022-10-20T11:04:36.418Z,1018.87
2022-10-20T11:05:36.239Z,1018.85
2022-10-20T11:06:37.077Z,1018.85
2022-10-20T11:07:38.174Z,1018.82
2022-10-20T11:08:38.658Z,1018.81
2022-10-20T11:09:39.516Z,1018.82
2022-10-20T11:10:40.335Z,1018.82
2022-10-20T11:11:41.186Z,1018.80
2022-10-20T11:12:41.994Z,1018.81
2022-10-20T11:13:42.826Z,1018.83
2022-10-20T11:14:43.655Z,1018.81
2022-10-20T11:15:44.498Z,1018.78
2022-10-20T11:16:45.338Z,1018.76
2022-10-20T11:17:46.134Z,1018.74
2022-10-20T11:18:46.966Z,1018.70
2022-10-20T11:19:47.795Z,1018.70
2022-10-20T11:20:48.622Z,1018.69
2022-10-20T11:21:49.463Z,1018.68
2022-10-20T11:22:50.282Z,1018.68
2022-10-20T11:23:51.102Z,1018.70
2022-10-20T11:24:51.930Z,1018.67
2022-10-20T11:25:52.762Z,1018.64
2022-10-20T11:26:53.602Z,1018.63
2022-10-20T11:27:54.431Z,1018.63
2022-10-20T11:28:55.250Z,1018.62
2022-10-20T11:29:56.081Z,1018.62
2022-10-20T11:30:56.908Z,1018.62
2022-10-20T11:31:57.767Z,1018.62
2022-10-20T11:32:58.584Z,1018.59
2022-10-20T11:33:59.409Z,1018.55
2022-10-20T11:35:00.228Z,1018.52
2022-10-20T11:36:01.070Z,1018.52
2022-10-20T11:37:01.909Z,1018.50
2022-10-20T11:38:02.740Z,1018.47
2022-10-20T11:39:03.569Z,1018.47
2022-10-20T11:40:07.659Z,1018.46
2022-10-20T11:41:05.028Z,1018.45
2022-10-20T11:42:05.859Z,1018.42
2022-10-20T11:43:08.909Z,1018.42
2022-10-20T11:44:07.267Z,1018.42
2022-10-20T11:45:08.097Z,1018.42
2022-10-20T11:46:08.938Z,1018.39
2022-10-20T11:47:09.775Z,1018.40
2022-10-20T11:48:10.576Z,1018.38
2022-10-20T11:49:11.405Z,1018.36
2022-10-20T11:50:12.276Z,1018.34
2022-10-20T11:51:13.079Z,1018.34
2022-10-20T11:52:13.923Z,1018.34
2022-10-20T11:53:14.747Z,1018.33
2022-10-20T11:54:15.564Z,1018.33
2022-10-20T11:55:16.398Z,1018.32
2022-10-20T11:56:17.242Z,1018.35
2022-10-20T11:57:18.071Z,1018.32
2022-10-20T11:58:18.901Z,1018.32
2022-10-20T11:59:19.729Z,1018.30
2022-10-20T12:01:21.346Z,1018.32
2022-10-20T12:02:22.205Z,1018.30
2022-10-20T12:03:23.019Z,1018.29
2022-10-20T12:04:23.863Z,1018.27
2022-10-20T12:05:24.678Z,1018.27
2022-10-20T12:06:25.519Z,1018.28
2022-10-20T12:07:26.347Z,1018.28
2022-10-20T12:08:30.908Z,1018.27
2022-10-20T12:09:27.877Z,1018.25
2022-10-20T12:10:28.715Z,1018.24
2022-10-20T12:11:29.548Z,1018.25
2022-10-20T12:12:30.365Z,1018.26
2022-10-20T12:13:31.196Z,1018.24
2022-10-20T12:14:32.019Z,1018.19
2022-10-20T12:15:32.844Z,1018.18
2022-10-20T12:16:33.697Z,1018.20
2022-10-20T12:17:34.566Z,1018.18
2022-10-20T12:18:35.370Z,1018.18
2022-10-20T12:19:36.201Z,1018.14
2022-10-20T12:20:37.020Z,1018.13